createdAt,value
2023-05-14T00:00:59.913Z,0.00
2023-05-14T00:01:59.951Z,0.00
2023-05-14T00:02:59.975Z,0.00
2023-05-14T00:04:00.092Z,0.00
2023-05-14T00:04:59.836Z,0.00
2023-05-14T00:05:59.844Z,0.00
2023-05-14T00:06:59.820Z,0.00
2023-05-14T00:07:59.826Z,0.00
2023-05-14T00:08:59.798Z,0.00
2023-05-14T00:09:59.770Z,0.00
2023-05-14T00:10:59.772Z,0.00
2023-05-14T00:11:59.754Z,0.00
2023-05-14T00:12:59.771Z,0.00
2023-05-14T00:13:59.731Z,0.00
2023-05-14T00:14:59.716Z,0.00
2023-05-14T00:15:59.726Z,0.00
2023-05-14T00:16:59.688Z,0.00
2023-05-14T00:17:59.705Z,0.00
2023-05-14T00:18:59.703Z,0.00
2023-05-14T00:19:59.657Z,0.00
2023-05-14T00:20:59.627Z,0.00
2023-05-14T00:21:59.644Z,0.00
2023-05-14T00:22:59.605Z,0.00
2023-05-14T00:23:59.633Z,0.00
2023-05-14T00:24:59.606Z,0.00
2023-05-14T00:25:59.603Z,0.00
2023-05-14T00:26:59.567Z,0.00
2023-05-14T00:27:59.588Z,0.00
2023-05-14T00:28:59.577Z,0.00
2023-05-14T00:29:59.529Z,0.00
2023-05-14T00:30:59.572Z,0.00
2023-05-14T00:31:59.526Z,0.00
2023-05-14T00:32:59.565Z,0.00
2023-05-14T00:33:59.505Z,0.00
2023-05-14T00:34:59.540Z,0.00
2023-05-14T00:35:59.484Z,0.00
2023-05-14T00:36:59.447Z,0.00
2023-05-14T00:37:59.446Z,0.00
2023-05-14T00:38:59.435Z,0.00
2023-05-14T00:39:59.458Z,0.00
2023-05-14T00:40:59.403Z,0.00
2023-05-14T00:41:59.408Z,0.00
2023-05-14T00:42:59.390Z,0.00
2023-05-14T00:43:59.372Z,0.00
2023-05-14T00:44:59.370Z,0.00
2023-05-14T00:45:59.410Z,0.00
2023-05-14T00:46:59.503Z,0.00
2023-05-14T00:47:59.359Z,0.00
2023-05-14T00:48:59.297Z,0.00
2023-05-14T00:49:59.295Z,0.00
2023-05-14T00:50:59.332Z,0.00
2023-05-14T00:51:59.271Z,0.00
2023-05-14T00:52:59.262Z,0.00
2023-05-14T00:53:59.258Z,0.00
2023-05-14T00:55:00.231Z,0.00
2023-05-14T00:55:59.265Z,0.00
2023-05-14T00:56:59.215Z,0.00
2023-05-14T00:57:59.204Z,0.00
2023-05-14T00:58:59.187Z,0.00
2023-05-14T00:59:59.170Z,0.00
2023-05-14T01:00:59.155Z,0.00
2023-05-14T01:01:59.194Z,0.00
2023-05-14T01:02:59.185Z,0.00
2023-05-14T01:03:59.288Z,0.00
2023-05-14T01:04:59.132Z,0.00
2023-05-14T01:05:59.109Z,0.00
2023-05-14T01:06:59.129Z,0.00
2023-05-14T01:07:59.302Z,0.00
2023-05-14T01:08:59.076Z,0.00
2023-05-14T01:09:59.058Z,0.00
2023-05-14T01:10:59.032Z,0.00
2023-05-14T01:11:59.108Z,0.00
2023-05-14T01:12:59.042Z,0.00
2023-05-14T01:13:59.017Z,0.00
2023-05-14T01:14:58.993Z,0.00
2023-05-14T01:15:59.050Z,0.00
2023-05-14T01:16:59.178Z,0.00
2023-05-14T01:17:59.039Z,0.00
2023-05-14T01:18:58.967Z,0.00
2023-05-14T01:19:58.943Z,0.00
2023-05-14T01:20:58.909Z,0.00
2023-05-14T01:21:58.957Z,0.00
2023-05-14T01:22:58.945Z,0.00
2023-05-14T01:23:58.894Z,0.00
2023-05-14T01:24:58.899Z,0.00
2023-05-14T01:25:58.852Z,0.00
2023-05-14T01:26:58.855Z,0.00
2023-05-14T01:27:58.881Z,0.00
2023-05-14T01:28:58.824Z,0.00
2023-05-14T01:29:58.828Z,0.00
2023-05-14T01:30:58.821Z,0.00
2023-05-14T01:31:58.822Z,0.00
2023-05-14T01:32:58.835Z,0.00
2023-05-14T01:33:58.793Z,0.00
2023-05-14T01:34:58.756Z,0.00
2023-05-14T01:35:58.808Z,0.00
2023-05-14T01:36:58.736Z,0.00
2023-05-14T01:37:58.706Z,0.00
2023-05-14T01:38:59.743Z,0.00
2023-05-14T01:39:58.687Z,0.00
2023-05-14T01:40:58.673Z,0.00
2023-05-14T01:41:58.679Z,0.00
2023-05-14T01:42:58.685Z,0.00
2023-05-14T01:43:58.678Z,0.00
2023-05-14T01:44:58.649Z,0.00
2023-05-14T01:45:58.673Z,0.00
2023-05-14T01:46:58.627Z,0.00
2023-05-14T01:47:58.678Z,0.00
2023-05-14T01:48:58.643Z,0.00
2023-05-14T01:49:58.641Z,0.00
2023-05-14T01:50:58.615Z,0.00
2023-05-14T01:51:58.635Z,0.00
2023-05-14T01:52:58.654Z,0.00
2023-05-14T01:53:58.614Z,0.00
2023-05-14T01:54:58.569Z,0.00
2023-05-14T01:55:58.601Z,0.00
2023-05-14T01:56:58.520Z,0.00
2023-05-14T01:57:58.481Z,0.00
2023-05-14T01:58:58.573Z,0.00
2023-05-14T01:59:58.461Z,0.00
2023-05-14T02:00:58.486Z,0.00
2023-05-14T02:01:58.649Z,0.00
2023-05-14T02:02:59.024Z,0.00
2023-05-14T02:03:58.464Z,0.00
2023-05-14T02:04:58.426Z,0.00
2023-05-14T02:05:58.391Z,0.00
2023-05-14T02:06:58.374Z,0.00
2023-05-14T02:07:58.358Z,0.00
2023-05-14T02:08:58.369Z,0.00
2023-05-14T02:09:58.357Z,0.00
2023-05-14T02:10:58.345Z,0.00
2023-05-14T02:11:58.814Z,0.00
2023-05-14T02:12:58.335Z,0.00
2023-05-14T02:13:58.324Z,0.00
2023-05-14T02:14:58.288Z,0.00
2023-05-14T02:15:58.401Z,0.00
2023-05-14T02:16:58.293Z,0.00
2023-05-14T02:17:58.261Z,0.00
2023-05-14T02:18:58.318Z,0.00
2023-05-14T02:19:58.239Z,0.00
2023-05-14T02:20:58.204Z,0.00
2023-05-14T02:21:58.200Z,0.00
2023-05-14T02:22:58.222Z,0.00
2023-05-14T02:23:58.209Z,0.00
2023-05-14T02:24:58.180Z,0.00
2023-05-14T02:25:58.378Z,0.00
2023-05-14T02:26:58.144Z,0.00
2023-05-14T02:27:58.115Z,0.00
2023-05-14T02:28:58.131Z,0.00
2023-05-14T02:29:58.161Z,0.00
2023-05-14T02:30:58.123Z,0.00
2023-05-14T02:31:58.106Z,0.00
2023-05-14T02:32:58.136Z,0.00
2023-05-14T02:33:58.078Z,0.00
2023-05-14T02:34:58.086Z,0.00
2023-05-14T02:35:58.057Z,0.00
2023-05-14T02:36:58.010Z,0.00
2023-05-14T02:37:58.015Z,0.00
2023-05-14T02:38:58.091Z,0.00
2023-05-14T02:39:57.997Z,0.00
2023-05-14T02:40:58.008Z,0.00
2023-05-14T02:41:57.954Z,0.00
2023-05-14T02:42:57.966Z,0.00
2023-05-14T02:43:57.931Z,0.00
2023-05-14T02:44:57.921Z,0.00
2023-05-14T02:45:57.954Z,0.00
2023-05-14T02:46:57.934Z,0.00
2023-05-14T02:47:57.958Z,0.00
2023-05-14T02:48:57.888Z,0.00
2023-05-14T02:49:57.874Z,0.00
2023-05-14T02:50:57.857Z,0.00
2023-05-14T02:51:57.897Z,0.00
2023-05-14T02:52:57.842Z,0.00
2023-05-14T02:53:57.815Z,0.00
2023-05-14T02:54:57.804Z,0.00
2023-05-14T02:55:57.807Z,0.00
2023-05-14T02:56:57.812Z,0.00
2023-05-14T02:57:57.773Z,0.00
2023-05-14T02:58:57.774Z,0.00
2023-05-14T02:59:57.742Z,0.00
2023-05-14T03:00:57.782Z,0.00
2023-05-14T03:01:57.743Z,0.00
2023-05-14T03:02:57.716Z,0.00
2023-05-14T03:03:57.706Z,0.00
2023-05-14T03:04:57.694Z,0.00
2023-05-14T03:05:57.686Z,0.00
2023-05-14T03:06:58.504Z,0.00
2023-05-14T03:07:57.644Z,0.00
2023-05-14T03:08:57.648Z,0.00
2023-05-14T03:09:57.639Z,0.00
2023-05-14T03:10:57.638Z,0.00
2023-05-14T03:11:57.624Z,0.00
2023-05-14T03:12:57.598Z,0.00
2023-05-14T03:13:57.576Z,0.00
2023-05-14T03:14:57.577Z,0.00
2023-05-14T03:15:57.574Z,0.00
2023-05-14T03:16:57.666Z,0.00
2023-05-14T03:17:57.548Z,0.00
2023-05-14T03:18:57.583Z,0.00
2023-05-14T03:19:57.505Z,0.00
2023-05-14T03:20:58.567Z,0.00
2023-05-14T03:21:57.468Z,0.00
2023-05-14T03:22:57.467Z,0.00
2023-05-14T03:23:57.492Z,0.00
2023-05-14T03:24:57.441Z,0.00
2023-05-14T03:25:57.442Z,0.00
2023-05-14T03:26:57.479Z,0.00
2023-05-14T03:27:57.406Z,0.00
2023-05-14T03:28:57.397Z,0.00
2023-05-14T03:29:57.416Z,0.00
2023-05-14T03:30:57.379Z,0.00
2023-05-14T03:31:57.403Z,0.00
2023-05-14T03:32:58.388Z,0.00
2023-05-14T03:33:57.342Z,0.00
2023-05-14T03:34:57.327Z,0.00
2023-05-14T03:35:57.321Z,0.00
2023-05-14T03:36:57.305Z,0.00
2023-05-14T03:37:57.317Z,0.00
2023-05-14T03:38:57.272Z,0.00
2023-05-14T03:39:57.254Z,0.00
2023-05-14T03:40:57.257Z,0.00
2023-05-14T03:41:57.268Z,0.00
2023-05-14T03:42:57.337Z,0.00
2023-05-14T03:43:57.224Z,5.62
2023-05-14T03:44:57.196Z,5.62
2023-05-14T03:45:57.188Z,5.62
2023-05-14T03:46:57.203Z,5.62
2023-05-14T03:47:57.267Z,5.62
2023-05-14T03:48:57.207Z,5.62
2023-05-14T03:49:57.163Z,5.62
2023-05-14T03:50:57.139Z,5.62
2023-05-14T03:51:57.149Z,5.62
2023-05-14T03:52:57.101Z,5.62
2023-05-14T03:53:57.127Z,5.62
2023-05-14T03:54:57.081Z,5.62
2023-05-14T03:55:57.068Z,5.62
2023-05-14T03:56:57.069Z,5.62
2023-05-14T03:57:57.064Z,5.62
2023-05-14T03:58:57.066Z,5.62
2023-05-14T03:59:57.045Z,11.25
2023-05-14T04:00:57.028Z,11.25
2023-05-14T04:01:57.107Z,11.25
2023-05-14T04:02:57.034Z,11.25
2023-05-14T04:03:57.139Z,11.25
2023-05-14T04:04:57.002Z,11.25
2023-05-14T04:05:56.961Z,11.25
2023-05-14T04:06:56.958Z,11.25
2023-05-14T04:07:56.962Z,11.25
2023-05-14T04:08:56.979Z,11.25
2023-05-14T04:09:56.917Z,11.25
2023-05-14T04:10:56.947Z,11.25
2023-05-14T04:11:56.890Z,11.25
2023-05-14T04:12:56.914Z,16.88
2023-05-14T04:13:56.882Z,16.88
2023-05-14T04:14:56.866Z,16.88
2023-05-14T04:15:56.879Z,16.88
2023-05-14T04:16:56.835Z,16.88
2023-05-14T04:17:56.875Z,16.88
2023-05-14T04:18:56.894Z,16.88
2023-05-14T04:19:56.809Z,16.88
2023-05-14T04:20:56.799Z,16.88
2023-05-14T04:21:57.761Z,16.88
2023-05-14T04:22:56.765Z,16.88
2023-05-14T04:23:56.751Z,22.50
2023-05-14T04:24:56.733Z,22.50
2023-05-14T04:25:56.729Z,22.50
2023-05-14T04:26:56.708Z,22.50
2023-05-14T04:27:56.707Z,22.50
2023-05-14T04:28:56.702Z,22.50
2023-05-14T04:29:56.697Z,22.50
2023-05-14T04:30:56.679Z,22.50
2023-05-14T04:31:56.673Z,22.50
2023-05-14T04:32:56.712Z,22.50
2023-05-14T04:33:56.718Z,22.50
2023-05-14T04:34:56.672Z,22.50
2023-05-14T04:35:56.617Z,22.50
2023-05-14T04:36:56.641Z,22.50
2023-05-14T04:37:56.595Z,22.50
2023-05-14T04:38:56.672Z,22.50
2023-05-14T04:39:56.568Z,22.50
2023-05-14T04:40:56.574Z,22.50
2023-05-14T04:41:56.551Z,28.12
2023-05-14T04:42:56.614Z,28.12
2023-05-14T04:43:56.793Z,28.12
2023-05-14T04:44:56.670Z,28.12
2023-05-14T04:45:56.742Z,28.12
2023-05-14T04:46:56.534Z,28.12
2023-05-14T04:47:56.602Z,28.12
2023-05-14T04:48:56.523Z,28.12
2023-05-14T04:49:56.501Z,28.12
2023-05-14T04:50:56.460Z,28.12
2023-05-14T04:51:56.514Z,33.75
2023-05-14T04:52:56.657Z,33.75
2023-05-14T04:53:56.534Z,33.75
2023-05-14T04:54:56.480Z,33.75
2023-05-14T04:55:56.469Z,33.75
2023-05-14T04:56:56.867Z,33.75
2023-05-14T04:57:56.441Z,39.38
2023-05-14T04:58:56.415Z,39.38
2023-05-14T04:59:56.352Z,39.38
2023-05-14T05:00:56.391Z,39.38
2023-05-14T05:01:56.380Z,39.38
2023-05-14T05:02:56.321Z,45.00
2023-05-14T05:03:56.343Z,45.00
2023-05-14T05:04:56.307Z,45.00
2023-05-14T05:05:56.637Z,45.00
2023-05-14T05:06:56.258Z,45.00
2023-05-14T05:07:56.292Z,45.00
2023-05-14T05:08:56.289Z,50.62
2023-05-14T05:09:56.257Z,50.62
2023-05-14T05:10:56.210Z,50.62
2023-05-14T05:11:56.217Z,50.62
2023-05-14T05:12:56.201Z,50.62
2023-05-14T05:13:56.236Z,50.62
2023-05-14T05:14:56.185Z,50.62
2023-05-14T05:15:56.225Z,50.62
2023-05-14T05:16:56.163Z,56.25
2023-05-14T05:17:56.159Z,56.25
2023-05-14T05:18:56.139Z,56.25
2023-05-14T05:19:56.145Z,56.25
2023-05-14T05:20:56.136Z,56.25
2023-05-14T05:21:56.245Z,56.25
2023-05-14T05:22:56.123Z,56.25
2023-05-14T05:23:57.069Z,56.25
2023-05-14T05:24:56.095Z,56.25
2023-05-14T05:25:56.057Z,56.25
2023-05-14T05:26:56.050Z,56.25
2023-05-14T05:27:56.089Z,56.25
2023-05-14T05:28:56.036Z,56.25
2023-05-14T05:29:55.996Z,56.25
2023-05-14T05:30:56.015Z,56.25
2023-05-14T05:31:56.066Z,56.25
2023-05-14T05:32:56.056Z,56.25
2023-05-14T05:33:55.957Z,56.25
2023-05-14T05:34:55.978Z,56.25
2023-05-14T05:35:55.952Z,56.25
2023-05-14T05:36:55.920Z,56.25
2023-05-14T05:37:55.891Z,56.25
2023-05-14T05:38:56.967Z,56.25
2023-05-14T05:39:55.892Z,56.25
2023-05-14T05:40:55.891Z,56.25
2023-05-14T05:41:55.856Z,56.25
2023-05-14T05:42:55.873Z,56.25
2023-05-14T05:43:55.847Z,56.25
2023-05-14T05:44:55.840Z,56.25
2023-05-14T05:45:55.854Z,56.25
2023-05-14T05:46:55.916Z,56.25
2023-05-14T05:47:56.009Z,56.25
2023-05-14T05:48:55.804Z,56.25
2023-05-14T05:49:55.819Z,56.25
2023-05-14T05:50:55.832Z,56.25
2023-05-14T05:51:56.490Z,56.25
2023-05-14T05:52:55.760Z,56.25
2023-05-14T05:53:55.744Z,56.25
2023-05-14T05:54:55.727Z,56.25
2023-05-14T05:55:55.710Z,56.25
2023-05-14T05:56:55.758Z,56.25
2023-05-14T05:57:55.677Z,56.25
2023-05-14T05:58:55.698Z,56.25
2023-05-14T05:59:55.672Z,56.25
2023-05-14T06:00:56.371Z,61.88
2023-05-14T06:01:55.673Z,61.88
2023-05-14T06:02:55.690Z,61.88
2023-05-14T06:03:55.644Z,61.88
2023-05-14T06:04:55.688Z,61.88
2023-05-14T06:05:55.623Z,61.88
2023-05-14T06:06:55.578Z,61.88
2023-05-14T06:07:55.636Z,61.88
2023-05-14T06:08:55.575Z,61.88
2023-05-14T06:09:55.546Z,61.88
2023-05-14T06:10:55.548Z,67.50
2023-05-14T06:11:55.539Z,67.50
2023-05-14T06:12:55.550Z,67.50
2023-05-14T06:13:55.505Z,67.50
2023-05-14T06:14:55.575Z,67.50
2023-05-14T06:15:55.479Z,67.50
2023-05-14T06:16:55.630Z,67.50
2023-05-14T06:17:55.515Z,67.50
2023-05-14T06:18:55.517Z,67.50
2023-05-14T06:19:55.471Z,73.12
2023-05-14T06:20:55.611Z,73.12
2023-05-14T06:21:55.633Z,73.12
2023-05-14T06:23:30.794Z,73.12
2023-05-14T06:23:55.654Z,78.75
2023-05-14T07:14:37.678Z,157.50
2023-05-14T07:15:38.648Z,157.50
2023-05-14T07:16:38.830Z,157.50
2023-05-14T07:17:38.652Z,157.50
2023-05-14T07:18:38.621Z,157.50
2023-05-14T07:19:38.622Z,157.50
2023-05-14T07:20:38.586Z,157.50
2023-05-14T07:21:38.619Z,157.50
2023-05-14T07:22:38.585Z,157.50
2023-05-14T07:23:38.550Z,163.12
2023-05-14T07:24:38.573Z,163.12
2023-05-14T07:25:38.531Z,168.75
2023-05-14T07:26:38.555Z,168.75
2023-05-14T07:27:38.612Z,168.75
2023-05-14T07:28:38.699Z,168.75
2023-05-14T07:29:38.644Z,168.75
2023-05-14T07:31:14.510Z,174.38
2023-05-14T07:31:38.852Z,174.38
2023-05-14T07:32:38.577Z,174.38
2023-05-14T07:33:38.517Z,174.38
2023-05-14T07:34:38.767Z,174.38
2023-05-14T07:35:38.487Z,174.38
2023-05-14T07:36:38.554Z,174.38
2023-05-14T07:37:39.153Z,174.38
2023-05-14T07:47:57.895Z,191.25
2023-05-14T07:48:57.810Z,191.25
2023-05-14T07:49:57.911Z,191.25
2023-05-14T07:50:57.726Z,196.88
2023-05-14T07:51:57.677Z,196.88
2023-05-14T07:52:57.843Z,196.88
2023-05-14T07:53:57.690Z,196.88
2023-05-14T07:54:57.672Z,196.88
2023-05-14T07:55:57.633Z,202.50
2023-05-14T07:56:57.645Z,202.50
2023-05-14T08:05:39.420Z,213.75
2023-05-14T08:06:39.494Z,213.75
2023-05-14T08:07:39.349Z,219.38
2023-05-14T08:08:39.298Z,225.00
2023-05-14T08:09:39.291Z,225.00
2023-05-14T08:10:39.389Z,230.62
2023-05-14T08:11:39.314Z,230.62
2023-05-14T08:12:39.296Z,230.62
2023-05-14T08:13:39.248Z,230.62
2023-05-14T08:14:39.289Z,230.62
2023-05-14T08:15:39.336Z,236.25
2023-05-14T08:16:40.627Z,241.88
2023-05-14T08:17:40.371Z,241.88
2023-05-14T08:18:40.368Z,247.50
2023-05-14T08:19:40.313Z,247.50
2023-05-14T08:20:40.283Z,247.50
2023-05-14T08:21:40.326Z,247.50
2023-05-14T08:22:40.266Z,247.50
2023-05-14T08:23:40.266Z,247.50
2023-05-14T08:24:40.239Z,241.88
2023-05-14T08:25:40.228Z,241.88
2023-05-14T08:26:40.248Z,241.88
2023-05-14T08:27:40.188Z,236.25
2023-05-14T08:28:40.195Z,236.25
2023-05-14T08:29:40.168Z,236.25
2023-05-14T08:30:40.164Z,241.88
2023-05-14T08:31:40.160Z,241.88
2023-05-14T08:32:40.195Z,241.88
2023-05-14T08:33:40.124Z,241.88
2023-05-14T08:34:40.430Z,241.88
2023-05-14T08:35:40.110Z,241.88
2023-05-14T08:36:40.081Z,241.88
2023-05-14T08:37:40.128Z,247.50
2023-05-14T08:38:40.056Z,247.50
2023-05-14T08:39:40.059Z,253.12
2023-05-14T08:40:40.049Z,264.38
2023-05-14T08:41:40.010Z,292.50
2023-05-14T08:42:40.031Z,393.75
2023-05-14T08:43:40.014Z,292.50
2023-05-14T08:44:40.009Z,365.62
2023-05-14T08:45:39.990Z,371.25
2023-05-14T08:46:39.969Z,410.62
2023-05-14T08:47:39.998Z,382.50
2023-05-14T08:48:39.977Z,410.62
2023-05-14T08:49:39.939Z,405.00
2023-05-14T08:50:39.916Z,405.00
2023-05-14T08:51:39.885Z,399.38
2023-05-14T08:52:39.903Z,393.75
2023-05-14T08:53:40.010Z,393.75
2023-05-14T08:54:39.859Z,388.12
2023-05-14T08:55:39.873Z,388.12
2023-05-14T08:56:39.830Z,388.12
2023-05-14T08:57:39.822Z,393.75
2023-05-14T08:58:39.821Z,393.75
2023-05-14T08:59:39.856Z,399.38
2023-05-14T09:00:39.777Z,399.38
2023-05-14T09:01:39.818Z,365.62
2023-05-14T09:02:39.851Z,388.12
2023-05-14T09:03:39.821Z,303.75
2023-05-14T09:04:39.775Z,303.75
2023-05-14T09:05:39.712Z,303.75
2023-05-14T09:06:39.718Z,286.88
2023-05-14T09:07:39.682Z,292.50
2023-05-14T09:08:39.789Z,292.50
2023-05-14T09:09:39.726Z,303.75
2023-05-14T09:10:39.680Z,309.38
2023-05-14T09:11:39.649Z,416.25
2023-05-14T09:12:39.636Z,427.50
2023-05-14T09:13:39.611Z,438.75
2023-05-14T09:14:39.595Z,438.75
2023-05-14T09:15:39.622Z,365.62
2023-05-14T09:16:39.614Z,399.38
2023-05-14T09:17:39.567Z,410.62
2023-05-14T09:18:39.587Z,315.00
2023-05-14T09:19:39.551Z,286.88
2023-05-14T09:20:39.572Z,275.62
2023-05-14T09:21:39.565Z,275.62
2023-05-14T09:22:39.504Z,354.38
2023-05-14T09:23:39.496Z,410.62
2023-05-14T09:24:39.484Z,399.38
2023-05-14T09:25:39.547Z,421.88
2023-05-14T09:26:39.470Z,337.50
2023-05-14T09:27:39.437Z,348.75
2023-05-14T09:28:39.424Z,315.00
2023-05-14T09:29:39.436Z,303.75
2023-05-14T09:30:39.407Z,309.38
2023-05-14T09:31:39.495Z,303.75
2023-05-14T09:32:39.476Z,315.00
2023-05-14T09:33:39.384Z,320.62
2023-05-14T09:34:39.358Z,343.12
2023-05-14T09:35:39.342Z,343.12
2023-05-14T09:36:39.380Z,388.12
2023-05-14T09:37:39.314Z,410.62
2023-05-14T09:38:39.316Z,337.50
2023-05-14T09:39:39.298Z,478.12
2023-05-14T09:40:39.276Z,421.88
2023-05-14T09:41:39.263Z,410.62
2023-05-14T09:42:39.274Z,410.62
2023-05-14T09:43:39.252Z,461.25
2023-05-14T09:44:39.240Z,405.00
2023-05-14T09:45:39.206Z,393.75
2023-05-14T09:46:39.213Z,444.38
2023-05-14T09:47:39.271Z,337.50
2023-05-14T09:48:39.727Z,337.50
2023-05-14T09:49:39.173Z,433.12
2023-05-14T09:50:39.172Z,410.62
2023-05-14T09:51:39.134Z,433.12
2023-05-14T09:52:39.151Z,450.00
2023-05-14T09:53:39.121Z,450.00
2023-05-14T09:54:39.089Z,376.88
2023-05-14T09:55:39.098Z,315.00
2023-05-14T09:56:39.081Z,315.00
2023-05-14T09:57:39.496Z,309.38
2023-05-14T09:58:39.132Z,309.38
2023-05-14T09:59:39.051Z,309.38
2023-05-14T10:00:39.028Z,309.38
2023-05-14T10:01:39.316Z,309.38
2023-05-14T10:02:39.091Z,337.50
2023-05-14T10:03:39.049Z,416.25
2023-05-14T10:04:39.067Z,444.38
2023-05-14T10:05:38.979Z,433.12
2023-05-14T10:06:38.951Z,427.50
2023-05-14T10:07:38.942Z,427.50
2023-05-14T10:08:38.943Z,427.50
2023-05-14T10:09:38.954Z,427.50
2023-05-14T10:10:38.922Z,421.88
2023-05-14T10:11:38.964Z,421.88
2023-05-14T10:12:38.871Z,421.88
2023-05-14T10:13:38.874Z,421.88
2023-05-14T10:14:39.133Z,427.50
2023-05-14T10:15:38.894Z,433.12
2023-05-14T10:16:38.880Z,438.75
2023-05-14T10:17:38.938Z,438.75
2023-05-14T10:18:38.848Z,343.12
2023-05-14T10:19:38.814Z,326.25
2023-05-14T10:20:38.856Z,343.12
2023-05-14T10:21:38.779Z,326.25
2023-05-14T10:22:38.765Z,309.38
2023-05-14T10:23:38.739Z,309.38
2023-05-14T10:24:38.803Z,433.12
2023-05-14T10:25:38.756Z,450.00
2023-05-14T10:26:38.738Z,348.75
2023-05-14T10:27:38.751Z,337.50
2023-05-14T10:28:38.682Z,416.25
2023-05-14T10:29:38.710Z,298.12
2023-05-14T10:30:38.731Z,298.12
2023-05-14T10:31:38.819Z,315.00
2023-05-14T10:32:38.708Z,320.62
2023-05-14T10:33:38.674Z,303.75
2023-05-14T10:34:38.734Z,292.50
2023-05-14T10:35:38.624Z,292.50
2023-05-14T10:36:38.634Z,298.12
2023-05-14T10:37:38.808Z,298.12
2023-05-14T10:38:38.631Z,298.12
2023-05-14T10:39:38.580Z,393.75
2023-05-14T10:40:38.612Z,410.62
2023-05-14T10:41:38.564Z,405.00
2023-05-14T10:42:38.727Z,450.00
2023-05-14T10:43:39.367Z,450.00
2023-05-14T10:44:38.561Z,427.50
2023-05-14T10:45:38.541Z,427.50
2023-05-14T10:46:38.592Z,388.12
2023-05-14T10:47:38.569Z,303.75
2023-05-14T10:48:38.489Z,292.50
2023-05-14T10:49:43.538Z,298.12
2023-05-14T10:50:38.495Z,315.00
2023-05-14T10:51:38.611Z,450.00
2023-05-14T10:52:39.204Z,438.75
2023-05-14T10:53:38.432Z,433.12
2023-05-14T10:54:38.459Z,438.75
2023-05-14T10:55:38.506Z,438.75
2023-05-14T10:56:38.465Z,388.12
2023-05-14T10:57:38.431Z,399.38
2023-05-14T10:58:38.394Z,405.00
2023-05-14T10:59:38.494Z,416.25
2023-05-14T11:00:38.384Z,410.62
2023-05-14T11:01:38.436Z,421.88
2023-05-14T11:02:38.418Z,427.50
2023-05-14T11:03:38.366Z,438.75
2023-05-14T11:04:38.326Z,405.00
2023-05-14T11:05:38.296Z,371.25
2023-05-14T11:06:38.306Z,376.88
2023-05-14T11:07:38.309Z,343.12
2023-05-14T11:08:38.277Z,371.25
2023-05-14T11:09:38.578Z,393.75
2023-05-14T11:10:39.172Z,421.88
2023-05-14T11:11:38.220Z,450.00
2023-05-14T11:12:38.283Z,450.00
2023-05-14T11:13:38.230Z,416.25
2023-05-14T11:14:38.463Z,438.75
2023-05-14T11:15:39.283Z,416.25
2023-05-14T11:16:38.179Z,421.88
2023-05-14T11:17:38.371Z,399.38
2023-05-14T11:18:38.207Z,382.50
2023-05-14T11:19:38.180Z,348.75
2023-05-14T11:20:38.120Z,354.38
2023-05-14T11:21:38.263Z,427.50
2023-05-14T11:22:38.164Z,365.62
2023-05-14T11:23:38.134Z,371.25
2023-05-14T11:24:38.067Z,354.38
2023-05-14T11:25:38.114Z,360.00
2023-05-14T11:26:38.026Z,393.75
2023-05-14T11:27:38.194Z,376.88
2023-05-14T11:28:38.110Z,388.12
2023-05-14T11:29:38.028Z,399.38
2023-05-14T11:30:38.011Z,416.25
2023-05-14T11:31:38.122Z,433.12
2023-05-14T11:32:38.032Z,343.12
2023-05-14T11:33:38.050Z,421.88
2023-05-14T11:34:37.970Z,455.62
2023-05-14T11:35:37.981Z,450.00
2023-05-14T11:36:37.950Z,421.88
2023-05-14T11:37:37.889Z,320.62
2023-05-14T11:38:37.903Z,292.50
2023-05-14T11:39:38.000Z,292.50
2023-05-14T11:40:37.844Z,292.50
2023-05-14T11:41:37.830Z,303.75
2023-05-14T11:42:37.813Z,337.50
2023-05-14T11:43:37.858Z,286.88
2023-05-14T11:44:37.812Z,286.88
2023-05-14T11:45:37.802Z,286.88
2023-05-14T11:46:37.834Z,281.25
2023-05-14T11:47:37.864Z,286.88
2023-05-14T11:48:37.781Z,292.50
2023-05-14T11:49:37.749Z,360.00
2023-05-14T11:50:37.716Z,421.88
2023-05-14T11:51:37.714Z,393.75
2023-05-14T11:52:37.733Z,416.25
2023-05-14T11:53:37.696Z,416.25
2023-05-14T11:54:37.671Z,303.75
2023-05-14T11:55:37.770Z,286.88
2023-05-14T11:56:37.660Z,286.88
2023-05-14T11:57:37.633Z,286.88
2023-05-14T11:58:37.697Z,298.12
2023-05-14T11:59:37.619Z,298.12
2023-05-14T12:00:37.677Z,298.12
2023-05-14T12:01:37.623Z,292.50
2023-05-14T12:02:37.706Z,286.88
2023-05-14T12:03:37.820Z,292.50
2023-05-14T12:04:37.619Z,326.25
2023-05-14T12:05:37.605Z,320.62
2023-05-14T12:06:37.646Z,410.62
2023-05-14T12:07:37.539Z,427.50
2023-05-14T12:08:37.528Z,410.62
2023-05-14T12:09:37.532Z,326.25
2023-05-14T12:10:37.485Z,354.38
2023-05-14T12:11:37.518Z,326.25
2023-05-14T12:12:37.544Z,354.38
2023-05-14T12:13:37.464Z,331.88
2023-05-14T12:14:37.478Z,309.38
2023-05-14T12:15:37.488Z,315.00
2023-05-14T12:16:38.500Z,309.38
2023-05-14T12:17:38.481Z,315.00
2023-05-14T12:18:37.509Z,371.25
2023-05-14T12:19:37.406Z,348.75
2023-05-14T12:20:37.368Z,337.50
2023-05-14T12:21:37.355Z,326.25
2023-05-14T12:22:37.368Z,320.62
2023-05-14T12:23:37.320Z,326.25
2023-05-14T12:24:37.313Z,337.50
2023-05-14T12:25:37.372Z,410.62
2023-05-14T12:26:37.430Z,444.38
2023-05-14T12:27:37.584Z,343.12
2023-05-14T12:28:38.530Z,337.50
2023-05-14T12:29:37.384Z,331.88
2023-05-14T12:30:37.285Z,326.25
2023-05-14T12:31:37.384Z,326.25
2023-05-14T12:32:37.456Z,326.25
2023-05-14T12:33:37.321Z,326.25
2023-05-14T12:34:37.678Z,326.25
2023-05-14T13:29:16.877Z,213.75
2023-05-14T13:30:18.701Z,219.38
2023-05-14T13:31:18.460Z,225.00
2023-05-14T13:32:17.827Z,230.62
2023-05-14T13:33:18.293Z,236.25
2023-05-14T13:34:18.062Z,241.88
2023-05-14T13:35:17.897Z,241.88
2023-05-14T13:36:17.970Z,247.50
2023-05-14T13:37:19.127Z,258.75
2023-05-14T13:38:19.426Z,270.00
2023-05-14T13:39:18.155Z,270.00
2023-05-14T13:40:18.708Z,275.62
2023-05-14T13:41:18.165Z,286.88
2023-05-14T13:42:18.844Z,292.50
2023-05-14T13:43:18.190Z,315.00
2023-05-14T13:44:18.160Z,298.12
2023-05-14T13:45:18.065Z,320.62
2023-05-14T13:46:17.929Z,337.50
2023-05-14T13:47:18.396Z,343.12
2023-05-14T13:48:17.831Z,348.75
2023-05-14T13:49:17.731Z,360.00
2023-05-14T13:50:17.854Z,303.75
2023-05-14T13:51:17.656Z,360.00
2023-05-14T13:52:17.666Z,365.62
2023-05-14T13:53:17.569Z,371.25
2023-05-14T13:54:17.595Z,371.25
2023-05-14T13:55:17.587Z,371.25
2023-05-14T13:56:17.551Z,376.88
2023-05-14T13:57:18.606Z,376.88
2023-05-14T13:58:17.504Z,382.50
2023-05-14T13:59:17.525Z,371.25
2023-05-14T14:00:17.625Z,371.25
2023-05-14T14:01:17.826Z,360.00
2023-05-14T14:02:17.486Z,286.88
2023-05-14T14:03:17.491Z,264.38
2023-05-14T14:04:17.437Z,253.12
2023-05-14T14:05:18.097Z,247.50
2023-05-14T14:06:17.813Z,241.88
2023-05-14T14:07:17.487Z,230.62
2023-05-14T14:08:23.537Z,219.38
2023-05-14T14:09:18.596Z,202.50
2023-05-14T14:10:17.519Z,191.25
2023-05-14T14:11:17.489Z,191.25
2023-05-14T14:12:17.838Z,185.62
2023-05-14T14:13:17.471Z,174.38
2023-05-14T15:41:00.020Z,174.38
2023-05-14T15:42:01.104Z,185.62
2023-05-14T15:43:01.181Z,191.25
2023-05-14T15:44:01.038Z,202.50
2023-05-14T15:45:00.967Z,208.12
2023-05-14T15:46:00.984Z,185.62
2023-05-14T15:47:00.961Z,185.62
2023-05-14T15:48:00.980Z,191.25
2023-05-14T15:49:01.373Z,196.88
2023-05-14T15:50:00.989Z,196.88
2023-05-14T15:51:00.896Z,202.50
2023-05-14T18:25:23.988Z,16.88
2023-05-14T18:26:24.907Z,16.88
2023-05-14T18:27:25.205Z,16.88
2023-05-14T18:28:24.755Z,11.25
2023-05-14T18:29:25.750Z,11.25
2023-05-14T18:30:24.773Z,11.25
2023-05-14T18:31:24.720Z,11.25
2023-05-14T18:32:24.719Z,11.25
2023-05-14T18:33:24.706Z,11.25
2023-05-14T18:34:25.670Z,11.25
2023-05-14T18:35:24.917Z,11.25
2023-05-14T18:36:24.675Z,11.25
2023-05-14T18:37:24.672Z,5.62
2023-05-14T18:38:24.651Z,5.62
2023-05-14T18:39:24.652Z,5.62
2023-05-14T18:40:24.689Z,5.62
2023-05-14T18:41:24.699Z,5.62
2023-05-14T18:42:24.586Z,5.62
2023-05-14T18:43:24.580Z,5.62
2023-05-14T18:44:24.586Z,5.62
2023-05-14T18:45:24.835Z,5.62
2023-05-14T18:46:24.581Z,5.62
2023-05-14T18:47:24.581Z,5.62
2023-05-14T18:48:24.535Z,5.62
2023-05-14T18:49:24.525Z,5.62
2023-05-14T18:50:24.537Z,5.62